createdAt,value
2022-08-26T00:00:03.536Z,22.07
2022-08-26T00:01:03.754Z,22.09
2022-08-26T00:02:01.882Z,22.09
2022-08-26T00:03:01.804Z,22.09
2022-08-26T00:04:02.005Z,22.09
2022-08-26T00:05:01.977Z,22.07
2022-08-26T00:06:01.817Z,22.06
2022-08-26T00:07:02.406Z,22.06
2022-08-26T00:08:02.875Z,22.04
2022-08-26T00:09:02.713Z,22.02
2022-08-26T00:10:02.725Z,21.99
2022-08-26T00:11:02.486Z,21.98
2022-08-26T00:12:02.247Z,21.95
2022-08-26T00:13:02.489Z,21.94
2022-08-26T00:14:02.065Z,21.92
2022-08-26T00:15:02.682Z,21.98
2022-08-26T00:16:02.147Z,21.98
2022-08-26T00:17:02.356Z,21.97
2022-08-26T00:18:02.682Z,21.92
2022-08-26T00:19:02.623Z,21.95
2022-08-26T00:20:02.368Z,21.97
2022-08-26T00:21:06.268Z,21.98
2022-08-26T00:22:02.770Z,22.01
2022-08-26T00:23:02.701Z,22.02
2022-08-26T00:24:03.082Z,22.04
2022-08-26T00:25:03.111Z,22.07
2022-08-26T00:26:03.056Z,22.09
2022-08-26T00:27:01.851Z,22.10
2022-08-26T00:28:02.455Z,22.07
2022-08-26T00:29:02.163Z,22.04
2022-08-26T00:30:02.218Z,22.01
2022-08-26T00:31:02.148Z,22.01
2022-08-26T00:32:02.152Z,22.01
2022-08-26T00:33:02.077Z,22.01
2022-08-26T00:34:02.244Z,22.02
2022-08-26T00:35:02.123Z,22.01
2022-08-26T00:36:02.167Z,22.01
2022-08-26T00:37:02.185Z,21.98
2022-08-26T00:38:02.021Z,21.99
2022-08-26T00:39:02.057Z,22.02
2022-08-26T00:40:05.364Z,21.97
2022-08-26T00:41:02.337Z,21.97
2022-08-26T00:42:02.115Z,21.98
2022-08-26T00:43:02.232Z,21.99
2022-08-26T00:44:02.467Z,21.95
2022-08-26T00:45:02.678Z,21.95
2022-08-26T00:46:02.572Z,21.91
2022-08-26T00:47:02.813Z,21.91
2022-08-26T00:48:02.875Z,21.90
2022-08-26T00:49:02.875Z,21.91
2022-08-26T00:50:02.390Z,21.88
2022-08-26T00:51:02.632Z,21.83
2022-08-26T00:52:02.318Z,21.83
2022-08-26T00:53:02.284Z,21.83
2022-08-26T00:54:02.265Z,21.85
2022-08-26T00:55:02.568Z,21.85
2022-08-26T00:56:02.417Z,21.79
2022-08-26T00:57:02.960Z,21.81
2022-08-26T00:58:02.973Z,21.78
2022-08-26T00:59:02.791Z,21.78
2022-08-26T01:00:02.852Z,21.75
2022-08-26T01:01:02.980Z,21.75
2022-08-26T01:02:03.226Z,21.74
2022-08-26T01:03:02.536Z,21.74
2022-08-26T01:04:02.478Z,21.67
2022-08-26T01:05:03.218Z,21.67
2022-08-26T01:06:03.031Z,21.66
2022-08-26T01:07:02.133Z,21.66
2022-08-26T01:08:02.242Z,21.64
2022-08-26T01:09:01.702Z,21.63
2022-08-26T01:10:01.706Z,21.61
2022-08-26T01:11:02.320Z,21.60
2022-08-26T01:12:02.232Z,21.59
2022-08-26T01:13:01.937Z,21.56
2022-08-26T01:14:01.894Z,21.54
2022-08-26T01:15:02.425Z,21.50
2022-08-26T01:16:02.193Z,21.50
2022-08-26T01:17:02.835Z,21.48
2022-08-26T01:18:03.032Z,21.45
2022-08-26T01:19:02.992Z,21.45
2022-08-26T01:20:03.124Z,21.44
2022-08-26T01:21:02.832Z,21.44
2022-08-26T01:22:02.914Z,21.42
2022-08-26T01:23:03.317Z,21.44
2022-08-26T01:24:02.857Z,21.44
2022-08-26T01:25:03.606Z,21.41
2022-08-26T01:26:03.096Z,21.38
2022-08-26T01:27:02.901Z,21.38
2022-08-26T01:28:02.891Z,21.35
2022-08-26T01:29:02.682Z,21.34
2022-08-26T01:30:03.323Z,21.30
2022-08-26T01:31:03.277Z,21.30
2022-08-26T01:32:01.878Z,21.24
2022-08-26T01:33:02.479Z,21.23
2022-08-26T01:34:02.265Z,21.24
2022-08-26T01:35:02.187Z,21.26
2022-08-26T01:36:02.109Z,21.23
2022-08-26T01:37:02.725Z,21.27
2022-08-26T01:38:02.631Z,21.27
2022-08-26T01:39:02.655Z,21.24
2022-08-26T01:40:02.782Z,21.23
2022-08-26T01:41:02.748Z,21.20
2022-08-26T01:42:03.139Z,21.19
2022-08-26T01:43:01.952Z,21.17
2022-08-26T01:44:02.636Z,21.17
2022-08-26T01:45:02.550Z,21.16
2022-08-26T01:46:02.336Z,21.13
2022-08-26T01:47:02.841Z,21.19
2022-08-26T01:48:03.035Z,21.14
2022-08-26T01:49:02.886Z,21.13
2022-08-26T01:50:03.093Z,21.06
2022-08-26T01:51:02.860Z,21.06
2022-08-26T01:52:03.087Z,21.05
2022-08-26T01:53:02.760Z,21.06
2022-08-26T01:54:03.175Z,21.04
2022-08-26T01:55:03.176Z,21.04
2022-08-26T01:56:02.842Z,21.01
2022-08-26T01:57:02.630Z,21.01
2022-08-26T01:58:02.321Z,21.01
2022-08-26T01:59:02.303Z,20.98
2022-08-26T02:00:02.640Z,20.95
2022-08-26T02:01:02.629Z,20.91
2022-08-26T02:02:02.663Z,20.90
2022-08-26T02:03:02.728Z,20.90
2022-08-26T02:04:02.696Z,20.90
2022-08-26T02:05:02.639Z,20.89
2022-08-26T02:06:02.994Z,20.87
2022-08-26T02:07:03.616Z,20.86
2022-08-26T02:08:03.185Z,20.86
2022-08-26T02:09:03.742Z,20.87
2022-08-26T02:10:03.414Z,20.87
2022-08-26T02:11:03.332Z,20.89
2022-08-26T02:12:03.850Z,20.87
2022-08-26T02:13:03.852Z,20.81
2022-08-26T02:14:03.713Z,20.79
2022-08-26T02:15:05.693Z,20.80
2022-08-26T02:16:03.569Z,20.79
2022-08-26T02:17:03.165Z,20.79
2022-08-26T02:18:03.017Z,20.76
2022-08-26T02:19:02.771Z,20.76
2022-08-26T02:20:02.607Z,20.74
2022-08-26T02:21:03.226Z,20.76
2022-08-26T02:22:03.598Z,20.76
2022-08-26T02:23:03.695Z,20.77
2022-08-26T02:24:03.559Z,20.77
2022-08-26T02:25:03.565Z,20.76
2022-08-26T02:26:03.472Z,20.72
2022-08-26T02:27:04.103Z,20.72
2022-08-26T02:28:04.160Z,20.72
2022-08-26T02:29:04.046Z,20.71
2022-08-26T02:30:03.957Z,20.68
2022-08-26T02:31:03.870Z,20.71
2022-08-26T02:32:02.919Z,20.69
2022-08-26T02:33:03.401Z,20.68
2022-08-26T02:34:03.258Z,20.68
2022-08-26T02:35:02.925Z,20.65
2022-08-26T02:36:03.113Z,20.64
2022-08-26T02:37:03.114Z,20.64
2022-08-26T02:38:03.189Z,20.62
2022-08-26T02:39:03.309Z,20.62
2022-08-26T02:40:03.422Z,20.61
2022-08-26T02:41:03.410Z,20.61
2022-08-26T02:42:03.872Z,20.61
2022-08-26T02:43:03.550Z,20.64
2022-08-26T02:44:04.034Z,20.61
2022-08-26T02:45:03.940Z,20.59
2022-08-26T02:46:04.057Z,20.58
2022-08-26T02:47:03.606Z,20.56
2022-08-26T02:48:04.193Z,20.54
2022-08-26T02:49:03.942Z,20.54
2022-08-26T02:50:03.930Z,20.53
2022-08-26T02:51:03.875Z,20.53
2022-08-26T02:52:02.882Z,20.50
2022-08-26T02:53:03.516Z,20.50
2022-08-26T02:54:03.703Z,20.51
2022-08-26T02:55:03.193Z,20.49
2022-08-26T02:56:03.159Z,20.49
2022-08-26T02:57:03.566Z,20.51
2022-08-26T02:58:03.608Z,20.49
2022-08-26T02:59:03.580Z,20.43
2022-08-26T03:00:03.333Z,20.47
2022-08-26T03:01:04.971Z,20.51
2022-08-26T03:02:02.902Z,20.49
2022-08-26T03:03:02.793Z,20.50
2022-08-26T03:04:02.529Z,20.47
2022-08-26T03:05:02.540Z,20.47
2022-08-26T03:06:02.588Z,20.47
2022-08-26T03:07:02.830Z,20.46
2022-08-26T03:08:02.726Z,20.43
2022-08-26T03:09:02.690Z,20.43
2022-08-26T03:10:08.247Z,20.39
2022-08-26T03:11:02.572Z,20.42
2022-08-26T03:12:02.709Z,20.41
2022-08-26T03:13:05.056Z,20.41
2022-08-26T03:14:03.668Z,20.41
2022-08-26T03:15:02.860Z,20.42
2022-08-26T03:16:03.075Z,20.41
2022-08-26T03:17:02.486Z,20.43
2022-08-26T03:18:02.954Z,20.43
2022-08-26T03:19:02.675Z,20.47
2022-08-26T03:20:02.766Z,20.47
2022-08-26T03:21:02.834Z,20.49
2022-08-26T03:22:02.781Z,20.49
2022-08-26T03:23:02.706Z,20.50
2022-08-26T03:24:03.105Z,20.53
2022-08-26T03:25:02.957Z,20.53
2022-08-26T03:26:03.136Z,20.54
2022-08-26T03:27:05.930Z,20.59
2022-08-26T03:28:03.117Z,20.61
2022-08-26T03:29:03.332Z,20.64
2022-08-26T03:30:03.316Z,20.64
2022-08-26T03:31:03.636Z,20.68
2022-08-26T03:32:03.376Z,20.66
2022-08-26T03:33:03.348Z,20.71
2022-08-26T03:34:03.688Z,20.69
2022-08-26T03:35:03.529Z,20.76
2022-08-26T03:36:03.541Z,20.77
2022-08-26T03:37:03.318Z,20.80
2022-08-26T03:38:03.302Z,20.83
2022-08-26T03:39:03.195Z,20.83
2022-08-26T03:40:03.243Z,20.86
2022-08-26T03:41:03.124Z,20.90
2022-08-26T03:42:03.143Z,20.90
2022-08-26T03:43:03.196Z,20.96
2022-08-26T03:44:03.172Z,20.99
2022-08-26T03:45:03.341Z,21.04
2022-08-26T03:46:03.546Z,21.06
2022-08-26T03:47:02.656Z,21.11
2022-08-26T03:48:02.565Z,21.14
2022-08-26T03:49:02.488Z,21.17
2022-08-26T03:50:02.595Z,21.20
2022-08-26T03:51:03.168Z,21.26
2022-08-26T03:52:03.025Z,21.30
2022-08-26T03:53:03.226Z,21.34
2022-08-26T03:54:02.722Z,21.36
2022-08-26T03:55:02.778Z,21.39
2022-08-26T03:56:02.996Z,21.45
2022-08-26T03:57:03.065Z,21.50
2022-08-26T03:58:03.102Z,21.51
2022-08-26T03:59:03.270Z,21.54
2022-08-26T04:00:03.129Z,21.60
2022-08-26T04:01:02.773Z,21.61
2022-08-26T04:02:02.377Z,21.64
2022-08-26T04:03:02.539Z,21.72
2022-08-26T04:04:02.408Z,21.75
2022-08-26T04:05:02.135Z,21.79
2022-08-26T04:06:02.049Z,21.81
2022-08-26T04:07:02.620Z,21.85
2022-08-26T04:08:02.365Z,21.91
2022-08-26T04:09:02.626Z,21.95
2022-08-26T04:10:02.725Z,21.97
2022-08-26T04:11:02.813Z,22.02
2022-08-26T04:12:02.803Z,22.04
2022-08-26T04:13:02.416Z,22.06
2022-08-26T04:14:03.012Z,22.10
2022-08-26T04:15:03.042Z,22.12
2022-08-26T04:16:02.686Z,22.14
2022-08-26T04:17:02.181Z,22.20
2022-08-26T04:18:02.577Z,22.25
2022-08-26T04:19:02.625Z,22.28
2022-08-26T04:20:02.357Z,22.31
2022-08-26T04:21:02.505Z,22.32
2022-08-26T04:22:02.716Z,22.35
2022-08-26T04:23:02.908Z,22.38
2022-08-26T04:24:03.604Z,22.41
2022-08-26T04:25:02.994Z,22.47
2022-08-26T04:26:03.127Z,22.47
2022-08-26T04:27:02.709Z,22.52
2022-08-26T04:28:02.275Z,22.54
2022-08-26T04:29:02.719Z,22.56
2022-08-26T04:30:02.606Z,22.59
2022-08-26T04:31:02.239Z,22.57
2022-08-26T04:32:02.917Z,22.65
2022-08-26T04:33:03.221Z,22.69
2022-08-26T04:34:02.779Z,22.71
2022-08-26T04:35:03.173Z,22.75
2022-08-26T04:36:02.589Z,22.78
2022-08-26T04:37:03.190Z,22.78
2022-08-26T04:38:03.432Z,22.80
2022-08-26T04:39:03.139Z,22.83
2022-08-26T04:40:03.554Z,22.86
2022-08-26T04:41:03.336Z,22.84
2022-08-26T04:42:03.622Z,22.86
2022-08-26T04:43:03.216Z,22.87
2022-08-26T04:44:03.214Z,22.89
2022-08-26T04:45:05.683Z,22.89
2022-08-26T04:46:03.579Z,22.87
2022-08-26T04:47:03.038Z,22.90
2022-08-26T04:48:02.909Z,22.94
2022-08-26T04:49:02.801Z,22.96
2022-08-26T04:50:03.209Z,23.01
2022-08-26T04:51:03.007Z,23.01
2022-08-26T04:52:02.734Z,23.04
2022-08-26T04:53:02.315Z,23.02
2022-08-26T04:54:02.279Z,23.05
2022-08-26T04:55:02.472Z,23.07
2022-08-26T04:56:02.505Z,23.08
2022-08-26T04:57:03.342Z,23.08
2022-08-26T04:58:02.820Z,23.08
2022-08-26T04:59:02.894Z,23.08
2022-08-26T05:00:03.152Z,23.11
2022-08-26T05:01:03.055Z,23.12
2022-08-26T05:02:02.976Z,23.11
2022-08-26T05:03:02.519Z,23.17
2022-08-26T05:04:03.029Z,23.20
2022-08-26T05:05:02.657Z,23.23
2022-08-26T05:06:02.550Z,23.24
2022-08-26T05:07:02.673Z,23.29
2022-08-26T05:08:02.126Z,23.34
2022-08-26T05:09:02.217Z,23.38
2022-08-26T05:10:02.644Z,23.39
2022-08-26T05:11:02.412Z,23.42
2022-08-26T05:12:02.645Z,23.45
2022-08-26T05:13:02.999Z,23.50
2022-08-26T05:14:03.009Z,23.50
2022-08-26T05:15:02.646Z,23.53
2022-08-26T05:16:03.088Z,23.55
2022-08-26T05:17:02.812Z,23.53
2022-08-26T05:18:02.346Z,23.57
2022-08-26T05:19:02.736Z,23.57
2022-08-26T05:20:02.397Z,23.57
2022-08-26T05:21:02.340Z,23.61
2022-08-26T05:22:02.459Z,23.61
2022-08-26T05:23:02.899Z,23.62
2022-08-26T05:24:02.831Z,23.62
2022-08-26T05:25:02.789Z,23.62
2022-08-26T05:26:02.404Z,23.62
2022-08-26T05:27:03.125Z,23.62
2022-08-26T05:28:02.695Z,23.67
2022-08-26T05:29:02.741Z,23.68
2022-08-26T05:30:03.136Z,23.70
2022-08-26T05:31:02.701Z,23.65
2022-08-26T05:32:02.912Z,23.68
2022-08-26T05:33:03.185Z,23.70
2022-08-26T05:34:03.722Z,23.70
2022-08-26T05:35:03.099Z,23.72
2022-08-26T05:36:02.706Z,23.71
2022-08-26T05:37:02.135Z,23.72
2022-08-26T05:38:02.224Z,23.72
2022-08-26T05:39:02.337Z,23.77
2022-08-26T05:40:02.621Z,23.77
2022-08-26T05:41:02.365Z,23.72
2022-08-26T05:42:02.895Z,23.75
2022-08-26T05:43:02.592Z,23.76
2022-08-26T05:44:02.811Z,23.75
2022-08-26T05:45:02.815Z,23.72
2022-08-26T05:46:03.127Z,23.71
2022-08-26T05:47:02.481Z,23.72
2022-08-26T05:48:02.677Z,23.77
2022-08-26T05:49:02.544Z,23.83
2022-08-26T05:50:02.750Z,23.83
2022-08-26T05:51:02.669Z,23.87
2022-08-26T05:52:03.260Z,23.86
2022-08-26T05:53:02.817Z,23.86
2022-08-26T05:54:02.704Z,23.85
2022-08-26T05:55:03.362Z,23.86
2022-08-26T05:56:03.140Z,23.86
2022-08-26T05:57:02.418Z,23.90
2022-08-26T05:58:02.894Z,23.94
2022-08-26T05:59:02.911Z,23.94
2022-08-26T06:00:02.343Z,23.94
2022-08-26T06:01:02.942Z,23.94
2022-08-26T06:02:03.115Z,23.95
2022-08-26T06:03:03.397Z,23.98
2022-08-26T06:04:03.069Z,24.00
2022-08-26T06:05:02.756Z,24.01
2022-08-26T06:06:02.759Z,24.01
2022-08-26T06:07:03.375Z,24.05
2022-08-26T06:08:03.070Z,24.05
2022-08-26T06:09:03.078Z,24.07
2022-08-26T06:10:28.691Z,24.10
2022-08-26T06:11:02.938Z,24.13
2022-08-26T06:12:03.159Z,24.14
2022-08-26T06:13:11.897Z,24.14
2022-08-26T06:14:03.728Z,24.08
2022-08-26T06:15:04.122Z,24.12
2022-08-26T06:16:03.404Z,24.13
2022-08-26T06:17:02.339Z,24.16
2022-08-26T06:18:02.435Z,24.17
2022-08-26T06:19:02.612Z,24.22
2022-08-26T06:20:02.373Z,24.22
2022-08-26T06:21:03.016Z,24.22
2022-08-26T06:22:02.668Z,24.22
2022-08-26T06:23:02.688Z,24.22
2022-08-26T06:24:02.767Z,24.22
2022-08-26T06:25:02.808Z,24.22
2022-08-26T06:26:03.202Z,24.24
2022-08-26T06:27:03.453Z,24.27
2022-08-26T06:28:03.176Z,24.26
2022-08-26T06:29:02.902Z,24.24
2022-08-26T06:30:03.455Z,24.19
2022-08-26T06:31:03.072Z,24.16
2022-08-26T06:32:03.614Z,24.14
2022-08-26T06:33:03.475Z,24.17
2022-08-26T06:34:07.254Z,24.20
2022-08-26T06:35:03.456Z,24.24
2022-08-26T06:36:03.638Z,24.26
2022-08-26T06:37:03.524Z,24.31
2022-08-26T06:38:03.752Z,24.34
2022-08-26T06:39:03.367Z,24.32
2022-08-26T06:40:03.880Z,24.31
2022-08-26T06:41:03.703Z,24.32
2022-08-26T06:42:03.078Z,24.31
2022-08-26T06:43:03.050Z,24.27
2022-08-26T06:44:03.095Z,24.26
2022-08-26T06:45:02.568Z,24.26
2022-08-26T06:46:02.809Z,24.26
2022-08-26T06:47:03.434Z,24.27
2022-08-26T06:48:03.656Z,24.29
2022-08-26T06:49:03.254Z,24.32
2022-08-26T06:50:03.393Z,24.35
2022-08-26T06:51:03.539Z,24.38
2022-08-26T06:52:02.623Z,24.37
2022-08-26T06:53:03.172Z,24.37
2022-08-26T06:54:03.067Z,24.34
2022-08-26T06:55:02.780Z,24.37
2022-08-26T06:56:03.177Z,24.39
2022-08-26T06:57:03.219Z,24.42
2022-08-26T06:58:03.435Z,24.44
2022-08-26T06:59:03.443Z,24.50
2022-08-26T07:00:02.993Z,24.54
2022-08-26T07:01:11.341Z,24.56
2022-08-26T07:02:02.586Z,24.50
2022-08-26T07:03:02.625Z,24.50
2022-08-26T07:04:02.503Z,24.50
2022-08-26T07:05:02.684Z,24.49
2022-08-26T07:06:02.605Z,24.52
2022-08-26T07:07:02.416Z,24.54
2022-08-26T07:08:02.334Z,24.59
2022-08-26T07:09:03.370Z,24.60
2022-08-26T07:10:02.156Z,24.61
2022-08-26T07:11:02.566Z,24.64
2022-08-26T07:12:02.799Z,24.63
2022-08-26T07:13:02.897Z,24.63
2022-08-26T07:14:02.651Z,24.64
2022-08-26T07:15:02.553Z,24.68
2022-08-26T07:16:02.912Z,24.73
2022-08-26T07:17:02.525Z,24.76
2022-08-26T07:18:02.247Z,24.79
2022-08-26T07:19:03.284Z,24.79
2022-08-26T07:20:02.285Z,24.69
2022-08-26T07:21:02.397Z,24.68
2022-08-26T07:22:03.352Z,24.68
2022-08-26T07:23:03.144Z,24.69
2022-08-26T07:24:03.090Z,24.71
2022-08-26T07:25:02.792Z,24.77
2022-08-26T07:26:02.805Z,24.77
2022-08-26T07:27:02.811Z,24.83
2022-08-26T07:28:02.582Z,24.83
2022-08-26T07:29:02.474Z,24.83
2022-08-26T07:30:02.859Z,24.79
2022-08-26T07:31:02.793Z,24.76
2022-08-26T07:32:03.264Z,24.73
2022-08-26T07:33:02.765Z,24.73
2022-08-26T07:34:03.112Z,24.75
2022-08-26T07:35:03.122Z,24.68
2022-08-26T07:36:02.783Z,24.71
2022-08-26T07:37:02.968Z,24.77
2022-08-26T07:38:03.027Z,24.76
2022-08-26T07:39:02.997Z,24.76
2022-08-26T07:40:02.971Z,24.75
2022-08-26T07:41:02.383Z,24.76
2022-08-26T07:42:07.759Z,24.76
2022-08-26T07:43:02.932Z,24.80
2022-08-26T07:44:02.528Z,24.83
2022-08-26T07:45:02.528Z,24.83
2022-08-26T07:46:02.830Z,24.83
2022-08-26T07:47:03.331Z,24.83
2022-08-26T07:48:03.983Z,24.79
2022-08-26T07:49:03.147Z,24.79
2022-08-26T07:50:03.546Z,24.83
2022-08-26T07:51:03.514Z,24.87
2022-08-26T07:52:03.420Z,24.92
2022-08-26T07:53:03.393Z,24.97
2022-08-26T07:54:03.337Z,25.00
2022-08-26T07:55:03.437Z,25.02
2022-08-26T07:56:02.988Z,25.05
2022-08-26T07:57:02.176Z,25.05
2022-08-26T07:58:02.379Z,25.00
2022-08-26T07:59:02.547Z,24.98
2022-08-26T08:00:02.534Z,24.97
2022-08-26T08:01:02.361Z,24.97
2022-08-26T08:02:02.685Z,24.98
2022-08-26T08:03:02.537Z,25.02
2022-08-26T08:04:02.588Z,24.98
2022-08-26T08:05:02.932Z,24.97
2022-08-26T08:06:02.500Z,24.98
2022-08-26T08:07:02.764Z,24.98
2022-08-26T08:08:26.264Z,24.97
2022-08-26T08:09:03.222Z,24.94
2022-08-26T08:10:05.576Z,24.90
2022-08-26T08:11:03.159Z,24.94
2022-08-26T08:12:03.084Z,24.97
2022-08-26T08:13:03.373Z,25.00
2022-08-26T08:14:03.303Z,24.98
2022-08-26T08:15:03.418Z,24.95
2022-08-26T08:16:03.195Z,24.97
2022-08-26T08:17:03.149Z,25.02
2022-08-26T08:18:02.942Z,25.09
2022-08-26T08:19:02.940Z,25.10
2022-08-26T08:20:02.839Z,25.13
2022-08-26T08:21:21.264Z,25.12
2022-08-26T08:22:02.899Z,25.13
2022-08-26T08:23:03.214Z,25.17
2022-08-26T08:24:03.402Z,25.17
2022-08-26T08:25:08.046Z,25.15
2022-08-26T08:26:02.944Z,25.17
2022-08-26T08:27:02.682Z,25.19
2022-08-26T08:28:02.570Z,25.24
2022-08-26T08:29:02.953Z,25.22
2022-08-26T08:30:02.745Z,25.15
2022-08-26T08:31:02.806Z,25.09
2022-08-26T08:32:03.214Z,25.02
2022-08-26T08:33:03.094Z,25.01
2022-08-26T08:34:03.413Z,25.01
2022-08-26T08:35:10.945Z,25.06
2022-08-26T08:36:03.541Z,25.09
2022-08-26T08:37:04.405Z,25.10
2022-08-26T08:38:04.281Z,25.13
2022-08-26T08:39:03.172Z,25.15
2022-08-26T08:40:03.890Z,25.16
2022-08-26T08:41:05.528Z,25.19
2022-08-26T08:42:03.012Z,25.22
2022-08-26T08:43:03.097Z,25.30
2022-08-26T08:44:03.186Z,25.37
2022-08-26T08:45:02.793Z,25.39
2022-08-26T08:46:03.170Z,25.35
2022-08-26T08:47:03.167Z,25.35
2022-08-26T08:48:03.528Z,25.38
2022-08-26T08:49:03.004Z,25.44
2022-08-26T08:50:03.688Z,25.47
2022-08-26T08:51:03.551Z,25.52
2022-08-26T08:52:04.231Z,25.56
2022-08-26T08:53:03.663Z,25.61
2022-08-26T08:54:03.717Z,25.59
2022-08-26T08:55:04.190Z,25.57
2022-08-26T08:56:04.083Z,25.57
2022-08-26T08:57:03.051Z,25.59
2022-08-26T08:58:03.251Z,25.59
2022-08-26T08:59:02.871Z,25.59
2022-08-26T09:00:03.354Z,25.57
2022-08-26T09:01:03.122Z,25.61
2022-08-26T09:02:02.484Z,25.62
2022-08-26T09:03:02.595Z,25.65
2022-08-26T09:04:02.281Z,25.65
2022-08-26T09:05:02.657Z,25.69
2022-08-26T09:06:02.290Z,25.74
2022-08-26T09:07:02.720Z,25.75
2022-08-26T09:08:02.682Z,25.74
2022-08-26T09:09:02.509Z,25.75
2022-08-26T09:10:02.643Z,25.82
2022-08-26T09:11:02.799Z,25.87
2022-08-26T09:12:01.929Z,25.89
2022-08-26T09:13:02.471Z,25.90
2022-08-26T09:14:02.325Z,25.91
2022-08-26T09:15:02.488Z,25.94
2022-08-26T09:16:01.833Z,25.97
2022-08-26T09:17:02.513Z,26.02
2022-08-26T09:18:02.842Z,26.01
2022-08-26T09:19:02.153Z,26.01
2022-08-26T09:20:02.284Z,26.04
2022-08-26T09:21:02.474Z,25.99
2022-08-26T09:22:06.966Z,25.99
2022-08-26T09:23:02.426Z,26.01
2022-08-26T09:24:02.625Z,26.01
2022-08-26T09:25:02.585Z,26.04
2022-08-26T09:26:02.778Z,26.04
2022-08-26T09:27:02.924Z,26.05
2022-08-26T09:28:02.899Z,26.01
2022-08-26T09:29:02.763Z,25.97
2022-08-26T09:30:03.224Z,25.87
2022-08-26T09:31:05.717Z,25.86
2022-08-26T09:32:02.638Z,25.87
2022-08-26T09:33:02.836Z,25.89
2022-08-26T09:34:02.483Z,25.87
2022-08-26T09:35:02.310Z,25.91
2022-08-26T09:36:02.625Z,25.93
2022-08-26T09:37:04.696Z,25.98
2022-08-26T09:38:02.512Z,26.01
2022-08-26T09:39:02.651Z,26.04
2022-08-26T09:40:02.650Z,25.98
2022-08-26T09:41:02.854Z,25.94
2022-08-26T09:42:02.894Z,25.94
2022-08-26T09:43:02.944Z,25.93
2022-08-26T09:44:02.739Z,25.97
2022-08-26T09:45:02.556Z,26.04
2022-08-26T09:46:02.801Z,26.04
2022-08-26T09:47:03.287Z,26.02
2022-08-26T09:48:02.748Z,26.04
2022-08-26T09:49:02.768Z,26.02
2022-08-26T09:50:02.982Z,25.97
2022-08-26T09:51:03.201Z,25.98
2022-08-26T09:52:03.097Z,26.04
2022-08-26T09:53:02.918Z,26.08
2022-08-26T09:54:02.781Z,26.08
2022-08-26T09:55:03.470Z,26.04
2022-08-26T09:56:02.984Z,26.08
2022-08-26T09:57:02.820Z,26.11
2022-08-26T09:58:08.041Z,26.05
2022-08-26T09:59:02.961Z,26.05
2022-08-26T10:00:02.769Z,26.02
2022-08-26T10:01:03.023Z,26.08
2022-08-26T10:03:01.603Z,26.21
2022-08-26T10:04:01.931Z,26.24
2022-08-26T10:05:09.275Z,26.21
2022-08-26T10:06:02.117Z,26.18
2022-08-26T10:07:02.327Z,26.15
2022-08-26T10:08:01.878Z,26.08
2022-08-26T10:09:08.347Z,26.09
2022-08-26T10:10:01.983Z,26.12
2022-08-26T10:11:02.559Z,26.17
2022-08-26T10:12:03.019Z,26.17
2022-08-26T10:13:03.150Z,26.12
2022-08-26T10:14:03.011Z,26.08
2022-08-26T10:15:03.259Z,26.06
2022-08-26T10:16:02.577Z,26.04
2022-08-26T10:17:02.560Z,25.99
2022-08-26T10:18:01.989Z,25.91
2022-08-26T10:19:02.254Z,25.94
2022-08-26T10:20:02.456Z,25.86
2022-08-26T10:21:02.135Z,25.80
2022-08-26T10:22:02.596Z,25.82
2022-08-26T10:23:02.772Z,25.83
2022-08-26T10:24:02.466Z,25.82
2022-08-26T10:25:02.792Z,25.82
2022-08-26T10:26:02.241Z,25.84
2022-08-26T10:27:03.093Z,25.91
2022-08-26T10:28:02.932Z,25.91
2022-08-26T10:29:03.130Z,25.94
2022-08-26T10:30:02.978Z,25.98
2022-08-26T10:31:02.653Z,25.98
2022-08-26T10:32:02.698Z,25.99
2022-08-26T10:33:02.307Z,26.02
2022-08-26T10:34:01.898Z,25.91
2022-08-26T10:35:01.980Z,25.89
2022-08-26T10:36:02.138Z,25.89
2022-08-26T10:37:14.932Z,25.89
2022-08-26T10:38:02.551Z,25.90
2022-08-26T10:39:02.370Z,25.91
2022-08-26T10:40:02.608Z,25.83
2022-08-26T10:41:02.392Z,25.82
2022-08-26T10:42:03.142Z,25.79
2022-08-26T10:43:07.184Z,25.80
2022-08-26T10:44:02.657Z,25.83
2022-08-26T10:45:02.939Z,25.80
2022-08-26T10:46:02.828Z,25.75
2022-08-26T10:47:03.379Z,25.75
2022-08-26T10:48:03.148Z,25.72
2022-08-26T10:49:03.383Z,25.65
2022-08-26T10:50:03.642Z,25.64
2022-08-26T10:51:03.020Z,25.64
2022-08-26T10:52:02.899Z,25.64
2022-08-26T10:53:02.334Z,25.64
2022-08-26T10:54:03.281Z,25.67
2022-08-26T10:55:03.153Z,25.74
2022-08-26T10:56:02.863Z,25.75
2022-08-26T10:57:03.226Z,25.68
2022-08-26T10:58:05.451Z,25.64
2022-08-26T10:59:02.655Z,25.54
2022-08-26T11:00:03.135Z,25.52
2022-08-26T11:01:02.687Z,25.56
2022-08-26T11:02:03.795Z,25.61
2022-08-26T11:03:02.653Z,25.69
2022-08-26T11:04:02.704Z,25.72
2022-08-26T11:05:02.663Z,25.74
2022-08-26T11:06:03.291Z,25.72
2022-08-26T11:07:02.228Z,25.67
2022-08-26T11:08:02.610Z,25.65
2022-08-26T11:09:02.835Z,25.68
2022-08-26T11:10:02.608Z,25.72
2022-08-26T11:11:02.861Z,25.77
2022-08-26T11:12:06.769Z,25.77
2022-08-26T11:13:02.782Z,25.74
2022-08-26T11:14:02.915Z,25.67
2022-08-26T11:15:02.626Z,25.65
2022-08-26T11:16:02.761Z,25.67
2022-08-26T11:17:02.869Z,25.68
2022-08-26T11:18:02.956Z,25.65
2022-08-26T11:19:02.975Z,25.64
2022-08-26T11:20:07.409Z,25.65
2022-08-26T11:21:03.238Z,25.68
2022-08-26T11:22:03.163Z,25.74
2022-08-26T11:23:02.639Z,25.79
2022-08-26T11:24:02.575Z,25.82
2022-08-26T11:25:02.604Z,25.77
2022-08-26T11:26:02.617Z,25.72
2022-08-26T11:27:02.804Z,25.74
2022-08-26T11:28:03.496Z,25.69
2022-08-26T11:29:03.604Z,25.69
2022-08-26T11:30:03.459Z,25.72
2022-08-26T11:31:03.314Z,25.82
2022-08-26T11:32:03.183Z,25.82
2022-08-26T11:33:02.569Z,25.80
2022-08-26T11:34:02.756Z,25.77
2022-08-26T11:35:02.817Z,25.77
2022-08-26T11:36:07.400Z,25.80
2022-08-26T11:37:02.415Z,25.83
2022-08-26T11:38:04.234Z,25.84
2022-08-26T11:39:03.291Z,25.87
2022-08-26T11:40:03.903Z,25.89
2022-08-26T11:41:03.351Z,25.89
2022-08-26T11:42:03.500Z,25.87
2022-08-26T11:43:02.756Z,25.91
2022-08-26T11:44:02.699Z,25.98
2022-08-26T11:45:05.632Z,26.04
2022-08-26T11:46:03.012Z,25.93
2022-08-26T11:47:03.132Z,25.89
2022-08-26T11:48:02.899Z,25.89
2022-08-26T11:49:03.130Z,25.94
2022-08-26T11:50:03.184Z,25.99
2022-08-26T11:51:03.387Z,26.05
2022-08-26T11:52:03.171Z,26.01
2022-08-26T11:53:03.093Z,26.01
2022-08-26T11:54:03.132Z,26.02
2022-08-26T11:55:02.748Z,26.04
2022-08-26T11:56:02.884Z,26.02
2022-08-26T11:57:07.326Z,26.02
2022-08-26T11:58:04.880Z,26.04
2022-08-26T11:59:03.166Z,26.06
2022-08-26T12:00:03.239Z,26.12
2022-08-26T12:01:03.811Z,26.20
2022-08-26T12:02:03.747Z,26.24
2022-08-26T12:03:02.972Z,26.25
2022-08-26T12:04:03.202Z,26.31
2022-08-26T12:05:03.097Z,26.29
2022-08-26T12:06:02.842Z,26.28
2022-08-26T12:07:03.438Z,26.31
2022-08-26T12:08:03.053Z,26.35
2022-08-26T12:09:02.758Z,26.39
2022-08-26T12:10:02.499Z,26.46
2022-08-26T12:11:02.775Z,26.54
2022-08-26T12:12:02.650Z,26.58
2022-08-26T12:13:03.188Z,26.67
2022-08-26T12:14:02.899Z,26.69
2022-08-26T12:15:02.889Z,26.73
2022-08-26T12:16:03.527Z,26.80
2022-08-26T12:17:03.282Z,26.81
2022-08-26T12:18:02.930Z,26.81
2022-08-26T12:19:02.878Z,26.79
2022-08-26T12:20:02.705Z,26.79
2022-08-26T12:21:02.621Z,26.83
2022-08-26T12:22:02.747Z,26.87
2022-08-26T12:23:03.470Z,26.95
2022-08-26T12:24:03.513Z,26.99
2022-08-26T12:25:03.088Z,27.04
2022-08-26T12:26:03.212Z,26.98
2022-08-26T12:27:03.686Z,26.91
2022-08-26T12:28:03.169Z,26.92
2022-08-26T12:29:20.312Z,26.94
2022-08-26T12:30:03.388Z,26.95
2022-08-26T12:31:03.404Z,26.98
2022-08-26T12:32:03.412Z,26.91
2022-08-26T12:33:02.829Z,26.84
2022-08-26T12:34:02.827Z,26.77
2022-08-26T12:35:07.732Z,26.79
2022-08-26T12:36:02.902Z,26.86
2022-08-26T12:37:02.353Z,26.81
2022-08-26T12:38:02.981Z,26.79
2022-08-26T12:39:03.492Z,26.73
2022-08-26T12:40:03.413Z,26.72
2022-08-26T12:41:03.396Z,26.73
2022-08-26T12:42:03.115Z,26.77
2022-08-26T12:43:03.301Z,26.86
2022-08-26T12:44:03.318Z,26.92
2022-08-26T12:45:03.477Z,26.96
2022-08-26T12:46:03.661Z,26.94
2022-08-26T12:47:03.766Z,26.95
2022-08-26T12:48:03.108Z,26.95
2022-08-26T12:49:03.128Z,26.98
2022-08-26T12:50:02.960Z,27.02
2022-08-26T12:51:02.860Z,27.11
2022-08-26T12:52:02.693Z,27.16
2022-08-26T12:53:02.990Z,27.19